Time;durP1;ratioP1;P1;durP2;ratioP2;P2;SDS_P1;SDS_P2;PMS_P1;PMS_P2;Temp;Humidity;BMP_temperature;BMP_pressure;BME280_temperature;BME280_humidity;BME280_pressure;Samples;Min_cycle;Max_cycle;Signal;HPM_P1;HPM_P2
2022/06/14 00:01:25;;;;;;;7.55;2.03;;;11.50;99.90;;;;;;5032536;28;20405;-73
2022/06/14 00:03:51;;;;;;;8.07;2.10;;;11.50;99.90;;;;;;5031500;28;20408;-73
2022/06/14 00:06:20;;;;;;;5.90;2.10;;;11.40;99.90;;;;;;5016032;28;20076;-73
2022/06/14 00:08:46;;;;;;;8.13;2.20;;;11.40;99.90;;;;;;5032403;28;20448;-73
2022/06/14 00:11:33;;;;;;;11.25;2.78;;;11.40;99.90;;;;;;5032132;28;20045;-73
2022/06/14 00:14:00;;;;;;;10.15;2.30;;;11.30;99.90;;;;;;5032250;28;20045;-73
2022/06/14 00:16:28;;;;;;;6.88;1.90;;;11.30;99.90;;;;;;5032012;28;20468;-73
2022/06/14 00:18:54;;;;;;;9.52;2.55;;;11.30;99.90;;;;;;5015993;28;20045;-73
2022/06/14 00:21:20;;;;;;;11.02;2.60;;;11.20;99.90;;;;;;5032386;28;20045;-73
2022/06/14 00:23:46;;;;;;;9.13;2.35;;;11.20;99.90;;;;;;5032002;28;20045;-73
2022/06/14 00:26:12;;;;;;;9.80;2.30;;;11.20;99.90;;;;;;5032172;28;20041;-73
2022/06/14 00:28:40;;;;;;;10.38;2.28;;;11.10;99.90;;;;;;5032200;28;20045;-73
2022/06/14 00:31:13;;;;;;;7.68;2.05;;;11.20;99.90;;;;;;5015741;28;20041;-73
2022/06/14 00:33:39;;;;;;;5.85;1.70;;;11.20;99.90;;;;;;5031865;28;20045;-73
2022/06/14 00:36:08;;;;;;;10.15;2.20;;;11.10;99.90;;;;;;5031972;28;20079;-73
2022/06/14 00:38:36;;;;;;;10.20;1.95;;;11.10;99.90;;;;;;5031921;28;20034;-73
2022/06/14 00:41:03;;;;;;;13.57;2.58;;;11.10;99.90;;;;;;5032310;28;20041;-73
2022/06/14 00:43:31;;;;;;;12.02;2.60;;;11.00;99.90;;;;;;5031907;28;20045;-73
2022/06/14 00:46:22;;;;;;;8.30;2.00;;;11.00;99.90;;;;;;5031806;28;20033;-72
2022/06/14 00:48:55;;;;;;;11.27;2.60;;;11.10;99.90;;;;;;5031762;28;20041;-73
2022/06/14 00:51:25;;;;;;;9.52;2.22;;;11.00;99.90;;;;;;5031808;28;20103;-73
2022/06/14 00:53:54;;;;;;;9.63;2.35;;;11.00;99.90;;;;;;5015268;28;20172;-73
2022/06/14 00:56:45;;;;;;;10.07;2.25;;;11.00;99.90;;;;;;5031693;28;20409;-73
2022/06/14 00:59:42;;;;;;;5.90;1.95;;;10.90;99.90;;;;;;5031766;28;20549;-73
2022/06/14 01:02:18;;;;;;;6.72;2.15;;;10.90;99.90;;;;;;5031849;28;20517;-73
2022/06/14 01:04:46;;;;;;;8.23;1.77;;;10.80;99.90;;;;;;5031917;28;20584;-73
2022/06/14 01:07:20;;;;;;;7.28;2.00;;;10.80;99.90;;;;;;5031899;28;20052;-72
2022/06/14 01:09:55;;;;;;;13.20;2.83;;;10.80;99.90;;;;;;5015138;28;20048;-73
2022/06/14 01:12:26;;;;;;;7.97;2.53;;;10.80;99.90;;;;;;5031506;28;20041;-73
2022/06/14 01:15:00;;;;;;;12.70;2.72;;;10.70;99.90;;;;;;5016410;28;20071;-73
2022/06/14 01:17:26;;;;;;;8.25;2.63;;;10.70;99.90;;;;;;5035357;28;20037;-73
2022/06/14 01:19:52;;;;;;;7.55;2.45;;;10.70;99.90;;;;;;5035534;28;20106;-74
2022/06/14 01:22:18;;;;;;;10.75;2.85;;;10.70;99.90;;;;;;5035172;28;20041;-73
2022/06/14 01:24:44;;;;;;;8.15;2.65;;;10.70;99.90;;;;;;5035391;28;20048;-73
2022/06/14 01:27:13;;;;;;;11.13;2.67;;;10.70;99.90;;;;;;5035304;28;20417;-73
2022/06/14 01:29:43;;;;;;;7.38;2.40;;;10.70;99.90;;;;;;5018676;28;20037;-73
2022/06/14 01:32:12;;;;;;;7.70;2.35;;;10.60;99.90;;;;;;5035312;28;20067;-73
2022/06/14 01:34:42;;;;;;;10.43;2.35;;;10.60;99.90;;;;;;5018384;28;20045;-73
2022/06/14 01:37:08;;;;;;;7.90;2.50;;;10.60;99.90;;;;;;5018489;28;20073;-73
2022/06/14 01:39:36;;;;;;;7.13;2.78;;;10.50;99.90;;;;;;5034857;28;20037;-73
2022/06/14 01:42:39;;;;;;;8.80;2.70;;;10.60;99.90;;;;;;5034867;28;20030;-73
2022/06/14 01:45:38;;;;;;;9.18;2.92;;;10.60;99.90;;;;;;5035162;28;20042;-69
2022/06/14 01:48:17;;;;;;;7.88;2.65;;;10.60;99.90;;;;;;5034679;28;20045;-69
2022/06/14 01:53:57;;;;;;;12.30;2.95;;;10.50;99.90;;;;;;5034508;28;20420;-69
2022/06/14 01:56:40;;;;;;;10.68;3.08;;;10.50;99.90;;;;;;5034463;28;20042;-69
2022/06/14 01:59:18;;;;;;;8.52;3.00;;;10.50;99.90;;;;;;5034477;28;20037;-69
2022/06/14 02:02:05;;;;;;;7.32;2.90;;;10.50;99.90;;;;;;5034405;28;20044;-69
2022/06/14 02:04:39;;;;;;;9.85;3.22;;;10.50;99.90;;;;;;5034924;28;20100;-69
2022/06/14 02:07:26;;;;;;;6.97;2.95;;;10.50;99.90;;;;;;5034564;28;20037;-69
2022/06/14 02:09:58;;;;;;;13.00;3.42;;;10.40;99.90;;;;;;5034287;28;20041;-69
2022/06/14 02:12:42;;;;;;;10.30;3.30;;;10.50;99.90;;;;;;5034129;28;20045;-69
2022/06/14 02:15:10;;;;;;;11.95;3.63;;;10.50;99.90;;;;;;5034321;28;20037;-69
2022/06/14 02:18:04;;;;;;;9.52;3.80;;;10.40;99.90;;;;;;5034069;28;20387;-69
2022/06/14 02:20:44;;;;;;;9.95;3.30;;;10.40;99.90;;;;;;5034111;28;20494;-69
2022/06/14 02:23:10;;;;;;;8.50;2.88;;;10.40;99.90;;;;;;5033961;28;20041;-69
2022/06/14 02:25:57;;;;;;;4.90;2.10;;;10.40;99.90;;;;;;5017541;28;20038;-69
2022/06/14 02:28:37;;;;;;;10.85;3.75;;;10.40;99.90;;;;;;5033893;28;20045;-69
2022/06/14 02:31:22;;;;;;;8.05;2.85;;;10.30;99.90;;;;;;5034136;28;20472;-69
2022/06/14 02:33:56;;;;;;;7.22;2.78;;;10.30;99.90;;;;;;5033770;28;20440;-69
2022/06/14 02:36:31;;;;;;;11.05;3.38;;;10.30;99.90;;;;;;5033796;28;20068;-69
2022/06/14 02:39:06;;;;;;;8.25;3.22;;;10.30;99.90;;;;;;5033767;28;20046;-69
2022/06/14 02:41:40;;;;;;;10.00;3.50;;;10.30;99.90;;;;;;5033978;28;20037;-69
2022/06/14 02:44:18;;;;;;;9.52;3.33;;;10.30;99.90;;;;;;5033489;28;20543;-69
2022/06/14 02:46:48;;;;;;;11.05;4.03;;;10.40;99.90;;;;;;5033639;28;20080;-69
2022/06/14 02:49:45;;;;;;;9.90;3.70;;;10.40;99.90;;;;;;5033485;28;20121;-69
2022/06/14 02:52:23;;;;;;;11.23;4.15;;;10.50;99.90;;;;;;4941817;28;20055;-69
2022/06/14 02:55:04;;;;;;;10.88;4.00;;;10.50;99.90;;;;;;4957871;28;20043;-70
2022/06/14 02:57:37;;;;;;;9.13;3.83;;;10.50;99.90;;;;;;4957855;28;20059;-69
2022/06/14 03:00:12;;;;;;;13.60;4.35;;;10.50;99.90;;;;;;4957577;28;20039;-69
2022/06/14 03:02:45;;;;;;;9.45;3.72;;;10.50;99.90;;;;;;4958240;28;20142;-69
2022/06/14 03:05:35;;;;;;;9.88;3.67;;;10.50;99.90;;;;;;4957494;28;20105;-69
2022/06/14 03:08:21;;;;;;;11.35;3.70;;;10.50;99.90;;;;;;4957382;28;20045;-69
2022/06/14 03:11:29;;;;;;;11.35;4.20;;;10.50;99.90;;;;;;4957445;28;20074;-69
2022/06/14 03:14:00;;;;;;;7.95;3.13;;;10.50;99.90;;;;;;4957522;28;20054;-69
2022/06/14 03:17:09;;;;;;;6.63;2.95;;;10.50;99.90;;;;;;4957350;28;20055;-69
2022/06/14 03:20:28;;;;;;;8.50;3.10;;;10.50;99.90;;;;;;4957452;28;20143;-69
2022/06/14 03:23:40;;;;;;;6.50;2.95;;;10.40;99.90;;;;;;4934675;29;20472;-69
2022/06/14 03:26:14;;;;;;;7.65;3.20;;;10.40;99.90;;;;;;4953293;28;20047;-69
2022/06/14 03:28:43;;;;;;;;;;;10.40;99.90;;;;;;4986417;28;20091;-69
2022/06/14 03:31:19;;;;;;;7.78;2.90;;;10.30;99.90;;;;;;5032746;28;19916;-69
2022/06/14 03:34:07;;;;;;;10.43;3.50;;;10.40;99.90;;;;;;5016454;28;20060;-69
2022/06/14 03:36:33;;;;;;;14.88;4.25;;;10.40;99.90;;;;;;5016130;28;20425;-69
2022/06/14 03:39:05;;;;;;;10.45;4.22;;;10.40;99.90;;;;;;5031641;28;20041;-69
2022/06/14 03:41:33;;;;;;;7.20;3.30;;;10.40;99.90;;;;;;5032656;28;20045;-69
2022/06/14 03:44:01;;;;;;;10.13;3.97;;;10.50;99.90;;;;;;5032358;28;20042;-69
2022/06/14 03:46:32;;;;;;;10.40;3.60;;;10.50;99.90;;;;;;5032450;28;20041;-69
2022/06/14 03:49:08;;;;;;;7.57;3.05;;;10.50;99.90;;;;;;5032449;28;20063;-69
2022/06/14 03:51:58;;;;;;;11.52;3.47;;;10.50;99.90;;;;;;5032430;28;20072;-69
2022/06/14 03:54:34;;;;;;;10.02;3.80;;;10.50;99.90;;;;;;5032599;28;20053;-69
2022/06/14 03:57:32;;;;;;;7.90;3.80;;;10.50;99.90;;;;;;5032534;28;20048;-69
2022/06/14 04:00:10;;;;;;;8.93;3.13;;;10.60;99.90;;;;;;5032358;28;20083;-69
2022/06/14 04:03:02;;;;;;;10.68;3.55;;;10.50;99.90;;;;;;5032412;28;20041;-69
2022/06/14 04:05:34;;;;;;;8.52;3.15;;;10.50;99.90;;;;;;5032187;28;20042;-69
2022/06/14 04:08:03;;;;;;;9.38;3.47;;;10.50;99.90;;;;;;5032123;28;20085;-69
2022/06/14 04:10:58;;;;;;;10.60;3.53;;;10.50;99.90;;;;;;5032098;28;20525;-69
2022/06/14 04:13:28;;;;;;;12.98;4.00;;;10.60;99.90;;;;;;5027984;28;20061;-69
2022/06/14 04:16:13;;;;;;;13.23;4.05;;;10.60;99.90;;;;;;5031944;28;20053;-69
2022/06/14 04:19:10;;;;;;;12.07;4.07;;;10.60;99.90;;;;;;5032245;28;20041;-69
2022/06/14 04:22:01;;;;;;;12.00;4.13;;;10.70;99.90;;;;;;5032339;28;20124;-69
2022/06/14 04:24:49;;;;;;;13.35;4.25;;;10.70;99.90;;;;;;5015439;28;20517;-69
2022/06/14 04:27:31;;;;;;;13.15;3.97;;;10.70;99.90;;;;;;5031952;28;20046;-69
2022/06/14 04:30:17;;;;;;;18.90;4.35;;;10.70;99.90;;;;;;5031913;28;20402;-69
2022/06/14 04:33:06;;;;;;;9.95;3.75;;;10.70;99.90;;;;;;5031774;28;20041;-69
2022/06/14 04:35:45;;;;;;;12.50;4.60;;;10.80;99.90;;;;;;5031800;28;20046;-69
2022/06/14 04:38:24;;;;;;;12.23;4.15;;;10.80;99.90;;;;;;5032052;28;20034;-69
2022/06/14 04:40:54;;;;;;;10.73;3.63;;;10.80;99.90;;;;;;5031884;28;20041;-69
2022/06/14 04:43:25;;;;;;;13.52;3.65;;;10.80;99.90;;;;;;5031912;28;20041;-69
2022/06/14 04:46:16;;;;;;;12.25;4.18;;;10.80;99.90;;;;;;5031958;28;20485;-69
2022/06/14 04:48:47;;;;;;;11.60;4.53;;;10.90;99.90;;;;;;5015311;28;20124;-69
2022/06/14 04:51:22;;;;;;;12.30;4.45;;;10.90;99.90;;;;;;5035429;28;20056;-69
2022/06/14 04:53:54;;;;;;;13.57;4.50;;;10.90;99.90;;;;;;5035621;28;20041;-69
2022/06/14 04:56:25;;;;;;;13.52;4.70;;;10.90;99.90;;;;;;5035537;28;20045;-69
2022/06/14 04:59:05;;;;;;;14.02;3.75;;;10.90;99.90;;;;;;5035870;28;20049;-69
2022/06/14 05:01:36;;;;;;;13.68;4.25;;;11.00;99.90;;;;;;5035835;28;20064;-69
2022/06/14 05:04:16;;;;;;;11.70;4.53;;;10.90;99.90;;;;;;5037021;28;20507;-69
2022/06/14 05:06:50;;;;;;;15.00;4.40;;;11.00;99.90;;;;;;5036589;28;20041;-69
2022/06/14 05:09:25;;;;;;;12.40;4.18;;;11.00;99.90;;;;;;5035465;28;20049;-69
2022/06/14 05:12:09;;;;;;;12.18;4.40;;;11.10;99.90;;;;;;5036095;28;20052;-69
2022/06/14 05:14:41;;;;;;;12.65;4.80;;;11.10;99.90;;;;;;5035516;28;20103;-69
2022/06/14 05:17:15;;;;;;;12.38;4.35;;;11.10;99.90;;;;;;5035253;28;20537;-69
2022/06/14 05:20:01;;;;;;;11.55;4.15;;;11.20;99.90;;;;;;5035283;28;20052;-69
2022/06/14 05:22:37;;;;;;;14.35;4.47;;;11.30;99.90;;;;;;5035519;28;20045;-69
2022/06/14 05:25:05;;;;;;;11.32;4.28;;;11.30;99.90;;;;;;5035099;28;20417;-69
2022/06/14 05:27:50;;;;;;;11.38;4.10;;;11.30;99.90;;;;;;5036021;28;20087;-69
2022/06/14 05:30:40;;;;;;;10.77;3.90;;;11.40;99.90;;;;;;5035032;28;20452;-69
2022/06/14 05:33:25;;;;;;;19.48;4.93;;;11.50;99.90;;;;;;5034885;28;20045;-69
2022/06/14 05:36:00;;;;;;;18.70;5.00;;;11.50;99.90;;;;;;5034988;28;20080;-69
2022/06/14 05:39:05;;;;;;;14.38;4.72;;;11.70;99.90;;;;;;5034874;28;20045;-69
2022/06/14 05:41:57;;;;;;;12.90;4.13;;;11.70;99.90;;;;;;4995637;28;20052;-69
2022/06/14 05:44:31;;;;;;;10.55;4.28;;;11.80;99.90;;;;;;5034736;28;20052;-69
2022/06/14 05:47:02;;;;;;;14.35;4.35;;;11.90;99.90;;;;;;5034755;28;20045;-69
2022/06/14 05:49:33;;;;;;;9.77;3.70;;;12.00;99.90;;;;;;5034884;28;20410;-69
2022/06/14 05:52:10;;;;;;;12.57;3.70;;;12.10;99.90;;;;;;5034546;28;20044;-69
2022/06/14 05:54:43;;;;;;;12.48;3.75;;;12.20;99.90;;;;;;5034541;28;20116;-69
2022/06/14 05:57:27;;;;;;;9.25;3.40;;;12.20;99.90;;;;;;5034496;28;20553;-69
2022/06/14 06:00:10;;;;;;;13.55;4.30;;;12.30;99.90;;;;;;5034784;28;20048;-69
2022/06/14 06:02:44;;;;;;;14.65;4.00;;;12.40;99.90;;;;;;5033390;28;20033;-69
2022/06/14 06:05:13;;;;;;;17.92;3.85;;;12.50;99.90;;;;;;5034394;28;20045;-69
2022/06/14 06:07:48;;;;;;;12.82;3.83;;;12.60;99.90;;;;;;5018051;28;20048;-69
2022/06/14 06:10:39;;;;;;;12.73;3.28;;;12.70;99.90;;;;;;5034381;28;20052;-69
2022/06/14 06:13:13;;;;;;;9.55;3.13;;;12.80;99.90;;;;;;5033380;28;20053;-68
2022/06/14 06:15:48;;;;;;;11.82;3.42;;;12.90;99.90;;;;;;5034291;28;20133;-69
2022/06/14 06:18:20;;;;;;;11.63;3.88;;;13.00;99.90;;;;;;5034221;28;20557;-69
2022/06/14 06:21:11;;;;;;;11.93;3.40;;;13.10;99.90;;;;;;5017664;28;20038;-69
2022/06/14 06:24:06;;;;;;;12.43;4.10;;;13.20;99.90;;;;;;5034045;28;20041;-69
2022/06/14 06:26:36;;;;;;;13.27;3.55;;;13.30;99.90;;;;;;5006134;28;20049;-69
2022/06/14 06:29:16;;;;;;;11.75;3.90;;;13.30;99.90;;;;;;5034137;28;20037;-68
2022/06/14 06:31:45;;;;;;;11.57;3.40;;;13.40;99.90;;;;;;5033879;28;20034;-68
2022/06/14 06:34:13;;;;;;;14.25;3.60;;;13.50;99.90;;;;;;5034130;28;20049;-69
2022/06/14 06:36:47;;;;;;;10.70;3.50;;;13.60;99.90;;;;;;5017353;28;20044;-69
2022/06/14 06:39:25;;;;;;;12.23;3.33;;;13.70;99.90;;;;;;5017469;28;20037;-68
2022/06/14 06:41:58;;;;;;;11.85;3.50;;;13.90;99.90;;;;;;5033639;28;20517;-69
2022/06/14 06:44:30;;;;;;;12.77;3.33;;;14.00;99.90;;;;;;5017521;28;20029;-69
2022/06/14 06:47:05;;;;;;;12.70;3.42;;;14.10;99.90;;;;;;5017138;28;20053;-69
2022/06/14 06:50:01;;;;;;;11.10;3.40;;;14.20;99.90;;;;;;5033753;28;20042;-69
2022/06/14 06:52:49;;;;;;;9.90;2.72;;;14.30;99.90;;;;;;5033711;28;20041;-69
2022/06/14 06:55:23;;;;;;;11.82;2.92;;;14.40;99.90;;;;;;5033435;28;20120;-69
2022/06/14 06:57:51;;;;;;;11.73;2.50;;;14.50;99.90;;;;;;5033452;28;20037;-69
2022/06/14 07:00:19;;;;;;;11.70;2.42;;;14.60;99.90;;;;;;5016856;28;20078;-69
2022/06/14 07:02:58;;;;;;;11.20;2.47;;;14.60;99.90;;;;;;5033249;28;20045;-69
2022/06/14 07:05:24;;;;;;;7.70;2.35;;;14.80;99.90;;;;;;5033265;28;20067;-69
2022/06/14 07:07:55;;;;;;;9.77;2.22;;;14.90;99.90;;;;;;5033441;28;20041;-69
2022/06/14 07:10:33;;;;;;;8.73;1.90;;;15.00;99.90;;;;;;5033179;28;20050;-69
2022/06/14 07:13:17;;;;;;;7.35;1.88;;;15.10;99.90;;;;;;5032803;28;20171;-69
2022/06/14 07:16:07;;;;;;;9.48;1.75;;;15.20;99.90;;;;;;5016665;28;20447;-70
2022/06/14 07:18:45;;;;;;;9.30;2.22;;;15.30;99.90;;;;;;5033163;28;20077;-68
2022/06/14 07:21:23;;;;;;;7.32;1.60;;;15.40;99.90;;;;;;5033322;28;20125;-68
2022/06/14 07:24:15;;;;;;;8.82;2.38;;;15.50;99.90;;;;;;5032858;28;20045;-68
2022/06/14 07:26:46;;;;;;;7.78;1.77;;;15.70;99.90;;;;;;5033063;28;20481;-69
2022/06/14 07:29:15;;;;;;;8.93;1.95;;;15.80;99.90;;;;;;5016583;28;20049;-69
2022/06/14 07:31:47;;;;;;;7.30;1.95;;;15.90;99.90;;;;;;5032701;28;20459;-69
2022/06/14 07:34:14;;;;;;;7.40;2.13;;;15.90;99.90;;;;;;5016955;28;20128;-68
2022/06/14 07:37:07;;;;;;;7.63;1.95;;;16.10;99.90;;;;;;5033873;28;20084;-68
2022/06/14 07:39:36;;;;;;;5.72;1.63;;;16.20;99.90;;;;;;5032928;28;20128;-69
2022/06/14 07:42:12;;;;;;;9.75;1.80;;;16.20;99.90;;;;;;5032395;28;20059;-69
2022/06/14 07:44:56;;;;;;;6.07;1.48;;;16.30;99.90;;;;;;5033385;28;20037;-69
2022/06/14 07:47:47;;;;;;;7.53;1.63;;;16.40;99.90;;;;;;5033401;28;20091;-69
2022/06/14 07:50:39;;;;;;;6.45;1.63;;;16.50;99.90;;;;;;5032432;28;20159;-69
2022/06/14 07:53:11;;;;;;;7.85;1.85;;;16.70;99.90;;;;;;5032246;28;20390;-69
2022/06/14 07:55:52;;;;;;;8.40;1.55;;;16.80;99.90;;;;;;5032248;28;20042;-69
2022/06/14 07:58:30;;;;;;;6.28;1.42;;;16.80;99.90;;;;;;5032548;28;20493;-69
2022/06/14 08:01:08;;;;;;;8.60;1.70;;;16.90;99.90;;;;;;5015897;28;20033;-69
2022/06/14 08:03:41;;;;;;;9.13;2.03;;;17.00;99.90;;;;;;5032198;28;20034;-69
2022/06/14 08:06:18;;;;;;;4.82;1.70;;;17.20;99.90;;;;;;5033337;28;20037;-68
2022/06/14 08:08:46;;;;;;;7.78;1.83;;;17.40;99.90;;;;;;5032186;28;20531;-69
2022/06/14 08:11:32;;;;;;;7.00;1.50;;;17.60;99.90;;;;;;5032065;28;20045;-69
2022/06/14 08:14:04;;;;;;;7.15;1.55;;;17.50;99.90;;;;;;5032357;28;20087;-69
2022/06/14 08:16:30;;;;;;;6.72;1.45;;;17.40;99.90;;;;;;5015593;28;20048;-69
2022/06/14 08:19:09;;;;;;;5.55;1.45;;;17.30;99.90;;;;;;5032034;28;20406;-69
2022/06/14 08:21:40;;;;;;;5.45;1.92;;;17.30;99.90;;;;;;5031993;28;20429;-69
2022/06/14 08:24:18;;;;;;;8.57;1.77;;;17.50;99.90;;;;;;5031319;28;20462;-69
2022/06/14 08:27:03;;;;;;;8.20;1.42;;;17.70;99.90;;;;;;5031917;28;20520;-68
2022/06/14 08:29:31;;;;;;;5.82;1.55;;;17.90;99.90;;;;;;5015753;28;20056;-68
2022/06/14 08:32:10;;;;;;;4.13;1.30;;;18.00;99.90;;;;;;5031985;28;20128;-69
2022/06/14 08:34:41;;;;;;;6.80;1.60;;;18.00;99.90;;;;;;5032114;28;20110;-69
2022/06/14 08:37:14;;;;;;;6.68;1.50;;;17.90;99.90;;;;;;5032083;28;20050;-69
2022/06/14 08:39:54;;;;;;;7.15;1.50;;;17.70;99.90;;;;;;5031802;28;20068;-69
2022/06/14 08:42:42;;;;;;;5.43;1.30;;;17.50;99.90;;;;;;5031611;28;20091;-69
2022/06/14 08:45:35;;;;;;;4.28;1.25;;;17.60;99.90;;;;;;5031815;28;20048;-69
2022/06/14 08:48:39;;;;;;;5.20;1.23;;;17.90;99.90;;;;;;5031785;28;20077;-69
2022/06/14 08:51:36;;;;;;;6.32;1.40;;;18.30;99.90;;;;;;5031966;28;20064;-69
2022/06/14 08:54:26;;;;;;;6.63;1.45;;;18.50;99.90;;;;;;5031853;28;20501;-69
2022/06/14 08:57:18;;;;;;;5.18;1.17;;;18.50;99.90;;;;;;5031590;28;20042;-69
2022/06/14 09:00:07;;;;;;;5.28;1.17;;;18.40;99.90;;;;;;5031662;28;20468;-69
2022/06/14 09:02:49;;;;;;;6.00;1.55;;;18.30;99.90;;;;;;4993566;28;20045;-69
2022/06/14 09:05:37;;;;;;;5.05;1.10;;;18.10;99.90;;;;;;5031618;28;20045;-69
2022/06/14 09:08:31;;;;;;;3.63;0.95;;;18.10;99.90;;;;;;5031562;28;20167;-69
2022/06/14 09:11:32;;;;;;;7.20;0.90;;;18.20;99.90;;;;;;5031501;28;20057;-69
2022/06/14 09:14:20;;;;;;;6.28;1.13;;;18.30;99.90;;;;;;5031720;28;20049;-69
2022/06/14 09:16:58;;;;;;;6.88;1.00;;;18.40;99.90;;;;;;5031478;28;20489;-69
2022/06/14 09:19:38;;;;;;;4.68;1.33;;;18.60;99.90;;;;;;5031750;28;20045;-69
2022/06/14 09:22:22;;;;;;;6.43;1.30;;;18.90;99.90;;;;;;5031364;28;20037;-69
2022/06/14 09:25:21;;;;;;;3.40;1.10;;;19.10;99.40;;;;;;5031370;28;20044;-69
2022/06/14 09:27:59;;;;;;;4.97;1.55;;;19.10;99.00;;;;;;5031688;28;20037;-69
2022/06/14 09:31:02;;;;;;;5.00;1.23;;;18.90;99.90;;;;;;5031301;28;20119;-69
2022/06/14 09:34:08;;;;;;;5.40;1.15;;;18.80;99.90;;;;;;5031314;28;20102;-69
2022/06/14 09:37:10;;;;;;;380.40;24.55;;;18.80;99.90;;;;;;5033620;28;20037;-68
2022/06/14 09:40:06;;;;;;;13.25;1.95;;;18.70;99.90;;;;;;5034933;28;20037;-68
2022/06/14 09:42:45;;;;;;;5.22;1.50;;;18.70;99.90;;;;;;5034665;28;20048;-68
2022/06/14 09:45:45;;;;;;;4.60;1.08;;;18.70;99.90;;;;;;5034765;28;20052;-68
2022/06/14 09:48:32;;;;;;;4.90;1.30;;;18.80;99.90;;;;;;5035031;28;20049;-68
2022/06/14 09:51:26;;;;;;;6.90;1.15;;;18.70;99.70;;;;;;5034722;28;20136;-68
2022/06/14 09:54:28;;;;;;;5.65;1.05;;;18.80;99.90;;;;;;5034749;28;20571;-69
2022/06/14 09:57:16;;;;;;;4.47;0.95;;;19.10;97.90;;;;;;5034531;28;20096;-69
2022/06/14 10:00:00;;;;;;;5.65;0.90;;;19.20;95.30;;;;;;5034589;28;20563;-68
2022/06/14 10:02:54;;;;;;;4.38;1.55;;;19.60;97.10;;;;;;5034603;28;20045;-69
2022/06/14 10:05:46;;;;;;;4.05;0.93;;;19.90;91.10;;;;;;5034473;28;20124;-68
2022/06/14 10:08:47;;;;;;;13.83;1.83;;;20.20;92.80;;;;;;5034412;28;20095;-69
2022/06/14 10:11:26;;;;;;;6.88;1.27;;;20.20;91.70;;;;;;5034331;28;20050;-69
2022/06/14 10:14:25;;;;;;;11.85;1.60;;;20.50;93.20;;;;;;5034465;28;20107;-69
2022/06/14 10:17:02;;;;;;;5.70;1.48;;;20.80;83.20;;;;;;5034216;28;20115;-69
2022/06/14 10:19:56;;;;;;;5.70;1.23;;;21.10;92.60;;;;;;5017897;28;20046;-69
2022/06/14 10:22:59;;;;;;;4.03;1.02;;;21.50;88.30;;;;;;5017786;28;20049;-69
2022/06/14 10:29:11;;;;;;;4.50;0.98;;;21.70;78.90;;;;;;5033973;28;20049;-72
2022/06/14 10:31:55;;;;;;;4.18;0.98;;;21.30;77.10;;;;;;5034226;28;20076;-69
2022/06/14 10:34:30;;;;;;;19.42;2.05;;;21.00;80.50;;;;;;5033830;28;20114;-69
2022/06/14 10:37:27;;;;;;;14.82;1.73;;;20.70;80.80;;;;;;5033773;28;20042;-68
2022/06/14 10:40:14;;;;;;;5.50;1.38;;;20.50;85.90;;;;;;5035090;28;20038;-69
2022/06/14 10:42:47;;;;;;;7.18;1.40;;;20.40;83.80;;;;;;5033625;28;20052;-69
2022/06/14 10:45:29;;;;;;;3.20;0.85;;;20.20;85.00;;;;;;5017464;28;20132;-68
2022/06/14 10:48:33;;;;;;;5.20;1.10;;;20.30;93.60;;;;;;5033424;28;20095;-68
2022/06/14 10:51:09;;;;;;;3.83;1.00;;;20.50;94.10;;;;;;4969768;28;20405;-68
2022/06/14 10:53:55;;;;;;;6.30;1.20;;;20.60;91.20;;;;;;5033506;28;20111;-67
2022/06/14 10:56:52;;;;;;;5.65;1.17;;;20.50;89.50;;;;;;5033453;28;20049;-67
2022/06/14 10:59:47;;;;;;;4.75;0.85;;;20.40;90.30;;;;;;5033482;28;20118;-67
2022/06/14 11:02:50;;;;;;;4.28;1.08;;;20.70;95.70;;;;;;5033307;28;20037;-68
2022/06/14 11:05:35;;;;;;;;;;;21.20;79.20;;;;;;5033779;28;20054;-68
2022/06/14 11:08:34;;;;;;;5.18;1.13;;;21.50;88.90;;;;;;5033235;28;19996;-68
2022/06/14 11:11:15;;;;;;;3.72;0.90;;;21.80;81.80;;;;;;5033242;28;20103;-67
2022/06/14 11:13:53;;;;;;;4.55;0.85;;;22.20;86.10;;;;;;5033130;28;20120;-67
2022/06/14 11:16:31;;;;;;;4.28;1.00;;;22.40;85.80;;;;;;5033080;28;20045;-67
2022/06/14 11:19:08;;;;;;;5.35;1.02;;;22.50;74.70;;;;;;5033023;28;20048;-68
2022/06/14 11:21:51;;;;;;;3.38;0.80;;;22.60;73.50;;;;;;5016786;28;20065;-65
2022/06/14 11:24:24;;;;;;;5.20;0.90;;;22.70;74.80;;;;;;5033252;28;20115;-66
2022/06/14 11:27:20;;;;;;;3.58;1.30;;;22.70;66.80;;;;;;5033212;28;20041;-66
2022/06/14 11:30:15;;;;;;;7.80;1.52;;;22.50;66.00;;;;;;5005263;28;20057;-66
2022/06/14 11:33:03;;;;;;;6.28;1.00;;;22.40;64.80;;;;;;5032913;28;20049;-66
2022/06/14 11:35:38;;;;;;;3.08;1.13;;;22.30;71.40;;;;;;5032973;28;20038;-66
2022/06/14 11:38:25;;;;;;;4.43;0.85;;;22.30;70.60;;;;;;5033058;28;20060;-65
2022/06/14 11:40:57;;;;;;;4.30;0.95;;;22.10;69.80;;;;;;5032576;28;20565;-65
2022/06/14 11:43:26;;;;;;;2.08;0.70;;;22.00;69.10;;;;;;5032539;28;20048;-66
2022/06/14 11:46:06;;;;;;;3.97;1.10;;;21.80;68.20;;;;;;5032498;28;20081;-66
2022/06/14 11:49:00;;;;;;;4.65;0.85;;;21.80;68.80;;;;;;5032487;28;20048;-66
2022/06/14 11:51:59;;;;;;;3.15;0.90;;;22.00;71.90;;;;;;5032433;28;20041;-66
2022/06/14 11:54:39;;;;;;;3.33;0.77;;;21.90;75.20;;;;;;5032671;28;20474;-66
2022/06/14 11:57:25;;;;;;;3.45;0.68;;;22.10;72.90;;;;;;5032228;28;20042;-66
2022/06/14 11:59:50;;;;;;;4.00;0.93;;;22.50;69.60;;;;;;5031521;28;20091;-66
2022/06/14 12:02:40;;;;;;;7.07;1.20;;;22.80;72.40;;;;;;5015957;28;20033;-66
2022/06/14 12:05:17;;;;;;;3.00;1.00;;;22.90;62.80;;;;;;5032372;28;20490;-66
2022/06/14 12:07:54;;;;;;;3.30;0.75;;;23.00;63.70;;;;;;5015707;28;20501;-66
2022/06/14 12:10:47;;;;;;;2.72;0.80;;;23.10;60.90;;;;;;5032447;28;20107;-66
2022/06/14 12:13:33;;;;;;;3.25;0.70;;;23.20;59.50;;;;;;5032264;28;20103;-66
2022/06/14 12:16:06;;;;;;;2.63;0.70;;;23.30;62.50;;;;;;5032145;28;20494;-66
2022/06/14 12:18:35;;;;;;;4.25;0.98;;;23.40;61.50;;;;;;5015604;28;20513;-66
2022/06/14 12:21:16;;;;;;;5.20;0.90;;;23.50;61.10;;;;;;5032309;28;20116;-66
2022/06/14 12:23:53;;;;;;;2.35;0.60;;;23.60;56.30;;;;;;5031950;28;20038;-66
2022/06/14 12:26:42;;;;;;;5.00;1.00;;;23.60;58.20;;;;;;5031954;28;20478;-66
2022/06/14 12:29:08;;;;;;;4.30;1.08;;;23.70;56.10;;;;;;5032275;28;20041;-66
2022/06/14 12:31:46;;;;;;;2.78;0.90;;;23.50;55.90;;;;;;5032220;28;20456;-66
2022/06/14 12:34:37;;;;;;;2.97;0.85;;;23.40;57.00;;;;;;5031863;28;20056;-66
2022/06/14 12:37:21;;;;;;;3.08;0.82;;;23.20;57.40;;;;;;5031885;28;20046;-67
2022/06/14 12:39:53;;;;;;;4.40;1.00;;;23.10;59.90;;;;;;5031810;28;20489;-66
2022/06/14 12:42:32;;;;;;;2.65;0.90;;;23.00;59.60;;;;;;5031670;28;20042;-66
2022/06/14 12:45:13;;;;;;;3.25;0.73;;;22.80;60.90;;;;;;5031760;28;20042;-66
2022/06/14 12:48:16;;;;;;;5.50;0.95;;;22.70;59.80;;;;;;5031779;28;20042;-66
2022/06/14 12:50:48;;;;;;;2.72;0.77;;;22.70;60.30;;;;;;5031720;28;20050;-66
2022/06/14 12:53:31;;;;;;;3.08;0.80;;;22.70;61.10;;;;;;5031629;28;20481;-67
2022/06/14 12:56:02;;;;;;;3.35;0.80;;;22.70;59.30;;;;;;5031653;28;20037;-67
2022/06/14 12:58:56;;;;;;;5.93;0.65;;;22.60;58.80;;;;;;5031657;28;20116;-67
2022/06/14 13:01:57;;;;;;;2.90;0.80;;;22.60;57.80;;;;;;5031627;28;20409;-67
2022/06/14 13:04:32;;;;;;;5.85;1.00;;;22.60;60.00;;;;;;5031514;28;20456;-66
2022/06/14 13:07:17;;;;;;;3.20;1.25;;;22.60;63.10;;;;;;5031601;28;20045;-66
2022/06/14 13:09:58;;;;;;;3.10;0.90;;;22.70;60.80;;;;;;5031787;28;20046;-66
2022/06/14 13:13:01;;;;;;;5.05;1.15;;;22.60;67.00;;;;;;5035300;28;20049;-66
2022/06/14 13:15:31;;;;;;;;;;;22.80;68.00;;;;;;5035907;28;20414;-66
2022/06/14 13:18:38;;;;;;;5.55;0.80;;;22.70;61.40;;;;;;5035342;28;19999;-66
2022/06/14 13:21:35;;;;;;;4.65;1.25;;;22.90;65.80;;;;;;5035271;28;20037;-66
2022/06/14 13:24:12;;;;;;;3.40;0.90;;;22.90;61.90;;;;;;5035170;28;20095;-67
2022/06/14 13:26:59;;;;;;;3.40;0.70;;;22.90;62.90;;;;;;5035185;28;20073;-66
2022/06/14 13:29:46;;;;;;;6.10;1.00;;;22.90;64.80;;;;;;5035100;28;20413;-67
2022/06/14 13:32:42;;;;;;;4.30;0.80;;;22.90;66.00;;;;;;5035235;28;20056;-67
2022/06/14 13:35:28;;;;;;;4.28;0.70;;;22.90;65.20;;;;;;5034989;28;20168;-67
2022/06/14 13:38:06;;;;;;;5.28;0.70;;;22.80;65.00;;;;;;5035918;28;20401;-67
2022/06/14 13:40:41;;;;;;;5.90;0.88;;;22.70;64.70;;;;;;5034851;28;20125;-66
2022/06/14 13:43:50;;;;;;;5.68;1.40;;;22.70;67.80;;;;;;5018805;28;20041;-70
2022/06/14 13:46:43;;;;;;;15.15;3.10;;;22.70;64.00;;;;;;5014636;28;20091;-71
2022/06/14 13:49:30;;;;;;;38.67;8.43;;;22.70;66.10;;;;;;5034948;28;20045;-72
2022/06/14 13:52:04;;;;;;;3.83;1.27;;;22.60;63.90;;;;;;5036325;28;20048;-70
2022/06/14 13:54:56;;;;;;;3.50;0.82;;;22.60;66.20;;;;;;5018373;28;20095;-72
2022/06/14 13:57:39;;;;;;;3.22;0.85;;;22.70;68.00;;;;;;5018215;28;20505;-72
2022/06/14 14:00:08;;;;;;;3.25;1.10;;;22.80;64.50;;;;;;5035017;28;20049;-71